createdAt,value
2023-02-19T00:01:44.099Z,11.53
2023-02-19T00:05:31.022Z,11.45
2023-02-19T00:08:52.380Z,11.69
2023-02-19T00:11:59.421Z,11.51
2023-02-19T00:15:12.763Z,11.42
2023-02-19T00:18:18.942Z,11.43
2023-02-19T00:21:21.726Z,11.36
2023-02-19T00:24:34.634Z,11.42
2023-02-19T00:27:53.149Z,11.42
2023-02-19T00:31:14.292Z,11.38
2023-02-19T00:34:17.550Z,11.28
2023-02-19T00:37:22.322Z,11.20
2023-02-19T00:40:34.151Z,11.18
2023-02-19T00:43:42.591Z,11.22
2023-02-19T00:46:53.614Z,11.21
2023-02-19T00:50:01.227Z,11.19
2023-02-19T00:53:06.488Z,11.19
2023-02-19T00:56:11.304Z,11.26
2023-02-19T00:59:33.682Z,11.21
2023-02-19T01:02:45.428Z,11.15
2023-02-19T01:05:52.935Z,11.26
2023-02-19T01:09:20.392Z,11.20
2023-02-19T01:12:25.997Z,11.15
2023-02-19T01:19:36.062Z,11.19
2023-02-19T01:22:51.510Z,11.14
2023-02-19T01:25:57.967Z,11.07
2023-02-19T01:29:06.344Z,11.08
2023-02-19T01:32:26.585Z,11.05
2023-02-19T01:38:51.194Z,10.95
2023-02-19T01:42:12.650Z,10.96
2023-02-19T01:45:39.783Z,10.91
2023-02-19T01:49:01.138Z,10.88
2023-02-19T01:52:19.302Z,10.86
2023-02-19T01:55:31.238Z,10.83
2023-02-19T01:58:50.366Z,10.65
2023-02-19T02:02:00.550Z,10.67
2023-02-19T02:05:16.783Z,10.76
2023-02-19T02:08:51.388Z,10.73
2023-02-19T02:12:09.372Z,10.67
2023-02-19T02:15:29.533Z,10.63
2023-02-19T02:19:11.246Z,10.61
2023-02-19T02:22:30.126Z,10.71
2023-02-19T02:25:57.936Z,10.73
2023-02-19T02:29:37.160Z,10.77
2023-02-19T02:33:00.338Z,10.77
2023-02-19T02:36:20.611Z,10.77
2023-02-19T02:39:32.621Z,10.80
2023-02-19T02:42:40.793Z,10.78
2023-02-19T02:45:56.117Z,10.80
2023-02-19T02:49:05.555Z,10.81
2023-02-19T02:52:42.756Z,10.78
2023-02-19T02:55:51.911Z,10.84
2023-02-19T02:59:05.880Z,10.88
2023-02-19T03:02:23.914Z,10.87
2023-02-19T03:05:53.914Z,10.85
2023-02-19T03:09:09.994Z,10.89
2023-02-19T03:12:41.987Z,10.88
2023-02-19T03:16:42.952Z,10.83
2023-02-19T03:19:57.485Z,10.81
2023-02-19T03:23:06.425Z,10.77
2023-02-19T03:26:17.578Z,10.73
2023-02-19T03:29:29.748Z,10.73
2023-02-19T03:32:44.249Z,10.85
2023-02-19T03:36:02.459Z,10.65
2023-02-19T03:39:19.850Z,10.57
2023-02-19T03:43:55.229Z,10.49
2023-02-19T03:46:46.952Z,10.37
2023-02-19T03:50:10.440Z,10.41
2023-02-19T03:53:32.500Z,10.46
2023-02-19T04:00:27.542Z,10.26
2023-02-19T04:04:03.392Z,10.35
2023-02-19T04:07:08.953Z,10.21
2023-02-19T04:10:32.135Z,10.32
2023-02-19T04:13:52.040Z,10.30
2023-02-19T04:17:06.786Z,10.34
2023-02-19T04:20:15.597Z,10.33
2023-02-19T04:23:28.337Z,10.33
2023-02-19T04:26:37.093Z,10.41
2023-02-19T04:29:44.520Z,10.36
2023-02-19T04:32:53.393Z,10.45
2023-02-19T04:36:03.507Z,10.47
2023-02-19T04:39:08.166Z,10.46
2023-02-19T04:42:19.842Z,10.42
2023-02-19T04:45:26.742Z,10.39
2023-02-19T04:48:50.532Z,10.34
2023-02-19T04:51:58.267Z,10.30
2023-02-19T04:55:04.850Z,10.34
2023-02-19T04:58:18.613Z,10.22
2023-02-19T05:01:51.742Z,10.21
2023-02-19T05:05:09.066Z,10.24
2023-02-19T05:08:21.239Z,10.16
2023-02-19T05:11:36.344Z,10.16
2023-02-19T05:14:41.371Z,10.19
2023-02-19T05:17:48.356Z,10.30
2023-02-19T05:20:52.755Z,10.31
2023-02-19T05:23:58.374Z,10.17
2023-02-19T05:27:03.083Z,10.00
2023-02-19T05:30:17.172Z,9.95
2023-02-19T05:33:26.055Z,9.91
2023-02-19T05:36:29.189Z,9.89
2023-02-19T05:39:38.694Z,9.93
2023-02-19T05:42:45.653Z,10.04
2023-02-19T05:45:53.461Z,10.13
2023-02-19T05:49:12.039Z,10.08
2023-02-19T05:52:18.892Z,10.09
2023-02-19T05:55:25.346Z,10.11
2023-02-19T05:58:28.550Z,9.99
2023-02-19T06:01:31.819Z,9.83
2023-02-19T06:04:40.760Z,9.73
2023-02-19T06:11:21.024Z,9.68
2023-02-19T06:14:28.722Z,9.51
2023-02-19T06:21:30.860Z,9.50
2023-02-19T06:24:43.962Z,9.85
2023-02-19T06:27:55.996Z,9.57
2023-02-19T06:31:04.347Z,9.32
2023-02-19T06:34:10.710Z,9.29
2023-02-19T06:37:32.360Z,9.19
2023-02-19T06:40:38.549Z,9.13
2023-02-19T06:43:43.075Z,8.98
2023-02-19T06:46:59.445Z,8.94
2023-02-19T06:50:05.045Z,8.88
2023-02-19T06:53:14.689Z,8.86
2023-02-19T06:57:02.833Z,8.51
2023-02-19T07:00:18.051Z,8.69
2023-02-19T07:03:28.502Z,8.68
2023-02-19T07:06:33.185Z,8.72
2023-02-19T07:09:35.924Z,8.61
2023-02-19T07:12:40.426Z,8.50
2023-02-19T07:15:50.510Z,8.59
2023-02-19T07:22:30.609Z,8.64
2023-02-19T07:25:34.497Z,8.65
2023-02-19T07:28:40.255Z,8.65
2023-02-19T07:31:46.588Z,8.63
2023-02-19T07:34:54.126Z,8.53
2023-02-19T07:38:02.440Z,8.61
2023-02-19T07:41:09.518Z,8.71
2023-02-19T07:44:25.791Z,8.56
2023-02-19T07:47:44.314Z,8.54
2023-02-19T07:55:18.565Z,8.58
2023-02-19T08:02:09.943Z,8.74
2023-02-19T08:05:16.012Z,8.88
2023-02-19T08:09:08.355Z,9.05
2023-02-19T08:12:37.158Z,9.04
2023-02-19T08:19:02.615Z,8.92
2023-02-19T08:22:05.894Z,8.96
2023-02-19T08:25:11.130Z,8.97
2023-02-19T08:28:22.276Z,9.00
2023-02-19T08:31:30.430Z,8.87
2023-02-19T08:34:38.356Z,8.83
2023-02-19T08:37:46.694Z,8.87
2023-02-19T08:40:49.518Z,8.95
2023-02-19T08:43:57.331Z,8.92
2023-02-19T08:47:08.153Z,9.05
2023-02-19T08:50:25.140Z,8.85
2023-02-19T08:53:30.002Z,8.92
2023-02-19T08:56:33.255Z,8.91
2023-02-19T08:59:38.586Z,9.15
2023-02-19T09:02:46.196Z,9.01
2023-02-19T09:05:51.544Z,8.92
2023-02-19T09:09:02.271Z,9.03
2023-02-19T09:12:13.926Z,8.94
2023-02-19T09:15:41.359Z,8.93
2023-02-19T09:21:59.978Z,8.95
2023-02-19T09:25:17.657Z,8.87
2023-02-19T09:28:22.521Z,8.80
2023-02-19T09:31:27.552Z,8.84
2023-02-19T09:34:33.454Z,8.84
2023-02-19T09:37:48.362Z,8.82
2023-02-19T09:40:57.604Z,8.86
2023-02-19T09:44:14.083Z,8.93
2023-02-19T09:47:30.189Z,8.96
2023-02-19T09:50:56.231Z,9.03
2023-02-19T09:54:16.104Z,9.08
2023-02-19T09:57:22.395Z,9.17
2023-02-19T10:00:40.178Z,9.19
2023-02-19T10:07:15.929Z,9.35
2023-02-19T10:10:45.266Z,9.49
2023-02-19T10:18:02.094Z,10.76
2023-02-19T10:21:10.056Z,13.72
2023-02-19T10:24:25.890Z,14.55
2023-02-19T10:27:33.120Z,14.38
2023-02-19T10:30:40.754Z,13.52
2023-02-19T10:34:02.239Z,13.31
2023-02-19T10:37:15.555Z,14.28
2023-02-19T10:40:34.392Z,15.27
2023-02-19T10:47:55.420Z,13.89
2023-02-19T10:51:41.102Z,13.91
2023-02-19T10:54:52.349Z,14.57
2023-02-19T10:58:58.482Z,14.02
2023-02-19T11:02:21.262Z,14.89
2023-02-19T11:05:25.202Z,15.82
2023-02-19T11:08:37.625Z,16.62
2023-02-19T11:11:40.774Z,16.74
2023-02-19T11:14:48.776Z,17.26
2023-02-19T11:18:04.060Z,17.12
2023-02-19T11:21:33.570Z,17.70
2023-02-19T11:24:45.601Z,16.99
2023-02-19T11:27:56.372Z,17.08
2023-02-19T11:31:36.329Z,18.45
2023-02-19T11:35:28.840Z,18.58
2023-02-19T11:38:58.418Z,18.49
2023-02-19T11:42:29.791Z,19.28
2023-02-19T11:46:12.222Z,18.17
2023-02-19T11:49:58.920Z,19.15
2023-02-19T11:54:21.874Z,19.39
2023-02-19T11:57:32.160Z,18.36
2023-02-19T12:01:31.642Z,18.44
2023-02-19T12:04:55.495Z,18.61
2023-02-19T12:08:13.778Z,19.12
2023-02-19T12:11:22.168Z,19.71
2023-02-19T12:15:00.882Z,19.32
2023-02-19T12:19:01.057Z,19.29
2023-02-19T12:22:23.448Z,17.86
2023-02-19T12:25:58.342Z,19.43
2023-02-19T12:29:43.392Z,18.94
2023-02-19T12:33:18.903Z,19.78
2023-02-19T12:37:01.300Z,18.05
2023-02-19T12:40:37.317Z,18.44
2023-02-19T12:44:05.809Z,18.26
2023-02-19T12:47:39.429Z,18.07
2023-02-19T12:50:49.084Z,17.11
2023-02-19T12:53:59.079Z,16.62
2023-02-19T12:57:11.303Z,16.84
2023-02-19T13:00:39.073Z,16.23
2023-02-19T13:03:53.865Z,15.90
2023-02-19T13:07:14.954Z,15.04
2023-02-19T13:10:40.339Z,15.05
2023-02-19T13:13:56.864Z,14.00
2023-02-19T13:17:27.532Z,13.28
2023-02-19T13:20:41.365Z,12.62
2023-02-19T13:24:01.504Z,12.44
2023-02-19T13:27:13.460Z,12.19
2023-02-19T13:30:33.558Z,12.44
2023-02-19T13:34:11.046Z,12.73
2023-02-19T13:37:21.150Z,13.43
2023-02-19T13:40:46.064Z,13.39
2023-02-19T13:44:31.804Z,13.80
2023-02-19T13:47:58.475Z,13.82
2023-02-19T13:51:17.435Z,13.84
2023-02-19T13:54:40.883Z,14.01
2023-02-19T14:01:11.710Z,13.65
2023-02-19T14:04:54.098Z,13.23
2023-02-19T14:08:08.414Z,12.82
2023-02-19T14:11:42.055Z,12.45
2023-02-19T14:14:53.454Z,12.06
2023-02-19T14:18:07.648Z,11.82
2023-02-19T14:21:39.795Z,11.73
2023-02-19T14:24:52.579Z,11.44
2023-02-19T14:28:37.985Z,11.17
2023-02-19T14:31:51.861Z,11.28
2023-02-19T14:35:03.110Z,11.26
2023-02-19T14:38:26.788Z,11.28
2023-02-19T14:41:35.483Z,11.33
2023-02-19T14:45:18.892Z,11.40
2023-02-19T14:48:42.185Z,11.50
2023-02-19T14:52:05.121Z,11.59
2023-02-19T14:55:35.171Z,11.70
2023-02-19T14:58:43.314Z,11.67
2023-02-19T15:02:15.817Z,11.75
2023-02-19T15:05:53.504Z,11.72
2023-02-19T15:09:14.224Z,11.52
2023-02-19T15:12:33.698Z,11.27
2023-02-19T15:15:40.904Z,11.16
2023-02-19T15:19:08.837Z,11.17
2023-02-19T15:22:24.920Z,11.08
2023-02-19T15:25:58.655Z,10.88
2023-02-19T15:29:13.541Z,11.05
2023-02-19T15:32:28.371Z,10.97
2023-02-19T15:35:42.229Z,10.96
2023-02-19T15:38:46.218Z,10.94
2023-02-19T15:42:12.984Z,11.14
2023-02-19T15:45:23.293Z,10.91
2023-02-19T15:48:50.394Z,10.99
2023-02-19T15:52:01.628Z,10.85
2023-02-19T15:55:34.829Z,10.77
2023-02-19T15:59:08.333Z,10.78
2023-02-19T16:02:18.322Z,10.83
2023-02-19T16:05:27.942Z,10.77
2023-02-19T16:08:40.041Z,10.77
2023-02-19T16:11:56.368Z,10.75
2023-02-19T16:15:19.797Z,10.81
2023-02-19T16:18:22.696Z,10.78
2023-02-19T16:21:33.005Z,10.78
2023-02-19T16:24:48.245Z,10.68
2023-02-19T16:28:01.124Z,10.66
2023-02-19T16:31:14.426Z,10.62
2023-02-19T16:34:34.944Z,10.59
2023-02-19T16:38:03.322Z,10.54
2023-02-19T16:41:23.326Z,10.57
2023-02-19T16:44:39.324Z,10.52
2023-02-19T16:47:48.404Z,10.52
2023-02-19T16:54:34.404Z,10.49
2023-02-19T16:57:43.454Z,10.38
2023-02-19T17:01:00.267Z,10.18
2023-02-19T17:04:21.918Z,10.05
2023-02-19T17:07:34.112Z,9.89
2023-02-19T17:10:39.275Z,9.85
2023-02-19T17:13:58.651Z,9.84
2023-02-19T17:20:36.354Z,9.65
2023-02-19T17:23:40.268Z,9.61
2023-02-19T17:26:46.427Z,9.61
2023-02-19T17:30:01.033Z,9.65
2023-02-19T17:36:34.857Z,9.53
2023-02-19T17:39:50.444Z,9.50
2023-02-19T17:42:59.254Z,9.60
2023-02-19T17:46:21.867Z,9.73
2023-02-19T17:49:29.196Z,9.49
2023-02-19T17:52:32.962Z,9.48
2023-02-19T17:55:40.014Z,9.46
2023-02-19T17:58:55.713Z,9.49
2023-02-19T18:02:03.349Z,9.47
2023-02-19T18:05:15.242Z,9.54
2023-02-19T18:08:23.286Z,9.64
2023-02-19T18:12:01.441Z,9.59
2023-02-19T18:15:01.563Z,9.53
2023-02-19T18:18:05.536Z,9.42
2023-02-19T18:21:21.563Z,9.52
2023-02-19T18:24:27.551Z,9.49
2023-02-19T18:27:46.005Z,9.49
2023-02-19T18:30:52.757Z,9.34
2023-02-19T18:34:17.884Z,9.27
2023-02-19T18:37:34.399Z,9.17
2023-02-19T18:40:44.719Z,9.04
2023-02-19T18:44:00.968Z,9.14
2023-02-19T18:47:06.478Z,9.24
2023-02-19T18:50:17.512Z,9.24
2023-02-19T18:53:24.138Z,9.15
2023-02-19T18:56:39.027Z,9.13
2023-02-19T18:59:57.618Z,9.11
2023-02-19T19:03:22.370Z,9.17
2023-02-19T19:06:26.312Z,9.12
2023-02-19T19:09:31.009Z,9.05
2023-02-19T19:12:37.096Z,9.07
2023-02-19T19:15:42.895Z,8.98
2023-02-19T19:19:24.094Z,8.95
2023-02-19T19:22:35.190Z,8.81
2023-02-19T19:25:40.062Z,8.75
2023-02-19T19:29:07.020Z,8.75
2023-02-19T19:32:22.577Z,8.64
2023-02-19T19:35:44.396Z,8.57
2023-02-19T19:38:54.791Z,8.54
2023-02-19T19:42:13.825Z,8.47
2023-02-19T19:45:19.579Z,8.48
2023-02-19T19:48:30.868Z,8.45
2023-02-19T19:51:44.194Z,8.44
2023-02-19T19:55:03.540Z,8.39
2023-02-19T19:58:08.132Z,8.34
2023-02-19T20:01:17.657Z,8.37
2023-02-19T20:04:24.048Z,8.45
2023-02-19T20:07:28.435Z,8.52
2023-02-19T20:10:32.742Z,8.53
2023-02-19T20:13:47.356Z,8.70
2023-02-19T20:16:50.822Z,8.73
2023-02-19T20:20:02.578Z,8.42
2023-02-19T20:23:09.499Z,8.67
2023-02-19T20:26:18.847Z,8.60
2023-02-19T20:29:33.084Z,8.42
2023-02-19T20:32:41.444Z,8.33
2023-02-19T20:35:46.775Z,8.22
2023-02-19T20:39:03.334Z,8.13
2023-02-19T20:42:09.556Z,8.17
2023-02-19T20:45:21.822Z,8.17
2023-02-19T20:48:26.168Z,8.15
2023-02-19T20:51:54.989Z,8.12
2023-02-19T20:55:20.473Z,8.00
2023-02-19T20:58:52.719Z,8.07
2023-02-19T21:02:00.758Z,7.92
2023-02-19T21:05:32.957Z,7.87
2023-02-19T21:08:50.465Z,7.77
2023-02-19T21:11:57.153Z,7.67
2023-02-19T21:15:07.951Z,7.60
2023-02-19T21:18:11.017Z,7.50
2023-02-19T21:21:47.312Z,7.49
2023-02-19T21:24:56.715Z,7.34
2023-02-19T21:28:05.608Z,7.28
2023-02-19T21:31:10.741Z,7.16
2023-02-19T21:34:23.672Z,6.98
2023-02-19T21:37:32.938Z,6.78
2023-02-19T21:40:46.256Z,6.71
2023-02-19T21:43:58.718Z,6.76
2023-02-19T21:47:10.438Z,6.63
2023-02-19T21:50:15.898Z,6.48
2023-02-19T21:53:22.419Z,6.38
2023-02-19T21:56:28.877Z,6.35
2023-02-19T21:59:46.841Z,6.46
2023-02-19T22:02:55.074Z,6.30
2023-02-19T22:06:03.569Z,6.24
2023-02-19T22:09:11.754Z,6.19
2023-02-19T22:12:23.857Z,6.20
2023-02-19T22:15:28.045Z,6.10
2023-02-19T22:18:47.113Z,5.95
2023-02-19T22:21:53.721Z,5.98
2023-02-19T22:25:00.938Z,5.93
2023-02-19T22:28:12.757Z,5.96
2023-02-19T22:31:26.805Z,5.94
2023-02-19T22:34:31.978Z,6.05
2023-02-19T22:37:37.657Z,6.03
2023-02-19T22:40:42.160Z,6.02
2023-02-19T22:43:51.592Z,5.92
2023-02-19T22:46:59.285Z,5.82
2023-02-19T22:50:06.279Z,5.69
2023-02-19T22:53:14.492Z,5.68
2023-02-19T22:56:26.714Z,5.80
2023-02-19T22:59:31.742Z,5.74
2023-02-19T23:02:35.955Z,5.70
2023-02-19T23:05:41.364Z,5.71
2023-02-19T23:08:50.737Z,5.70
2023-02-19T23:12:05.242Z,5.62
2023-02-19T23:15:16.077Z,5.70
2023-02-19T23:18:23.171Z,5.68
2023-02-19T23:21:27.881Z,5.57
2023-02-19T23:24:31.176Z,5.64
2023-02-19T23:27:49.195Z,5.62
2023-02-19T23:30:56.401Z,5.56
2023-02-19T23:34:10.081Z,5.62
2023-02-19T23:37:13.346Z,5.51
2023-02-19T23:40:20.018Z,5.44
2023-02-19T23:43:23.680Z,5.54
2023-02-19T23:46:27.830Z,5.56
2023-02-19T23:49:34.030Z,5.48
2023-02-19T23:52:38.880Z,5.37
2023-02-19T23:55:47.196Z,5.28
2023-02-19T23:58:59.304Z,5.22
